sensor_id;sensor_type;location;lat;lon;timestamp;P1;durP1;ratioP1;P2;durP2;ratioP2
13959;SDS011;7052;51.050;3.716;2023-03-01T00:01:03;5.63;;;4.93;;
13959;SDS011;7052;51.050;3.716;2023-03-01T00:03:32;6.87;;;5.50;;
13959;SDS011;7052;51.050;3.716;2023-03-01T00:06:00;5.67;;;4.90;;
13959;SDS011;7052;51.050;3.716;2023-03-01T00:08:28;5.80;;;4.67;;
13959;SDS011;7052;51.050;3.716;2023-03-01T00:11:00;5.30;;;4.33;;
13959;SDS011;7052;51.050;3.716;2023-03-01T00:13:35;4.90;;;4.40;;
13959;SDS011;7052;51.050;3.716;2023-03-01T00:16:26;5.20;;;4.70;;
13959;SDS011;7052;51.050;3.716;2023-03-01T00:19:15;4.70;;;4.20;;
13959;SDS011;7052;51.050;3.716;2023-03-01T00:21:46;6.27;;;4.87;;
13959;SDS011;7052;51.050;3.716;2023-03-01T00:24:27;5.20;;;4.70;;
13959;SDS011;7052;51.050;3.716;2023-03-01T00:27:34;4.90;;;4.40;;
13959;SDS011;7052;51.050;3.716;2023-03-01T00:30:03;6.60;;;4.90;;
13959;SDS011;7052;51.050;3.716;2023-03-01T00:32:31;6.83;;;4.70;;
13959;SDS011;7052;51.050;3.716;2023-03-01T00:34:58;6.17;;;5.20;;
13959;SDS011;7052;51.050;3.716;2023-03-01T00:37:25;5.50;;;4.60;;
13959;SDS011;7052;51.050;3.716;2023-03-01T00:39:52;6.13;;;5.17;;
13959;SDS011;7052;51.050;3.716;2023-03-01T00:42:20;6.13;;;5.00;;
13959;SDS011;7052;51.050;3.716;2023-03-01T00:44:47;7.53;;;5.07;;
13959;SDS011;7052;51.050;3.716;2023-03-01T00:50:37;6.33;;;4.93;;
13959;SDS011;7052;51.050;3.716;2023-03-01T00:53:19;6.47;;;5.67;;
13959;SDS011;7052;51.050;3.716;2023-03-01T00:55:46;9.33;;;6.40;;
13959;SDS011;7052;51.050;3.716;2023-03-01T00:58:13;7.70;;;5.40;;
13959;SDS011;7052;51.050;3.716;2023-03-01T01:00:40;9.30;;;6.50;;
13959;SDS011;7052;51.050;3.716;2023-03-01T01:03:09;7.80;;;6.07;;
13959;SDS011;7052;51.050;3.716;2023-03-01T01:05:36;7.50;;;6.70;;
13959;SDS011;7052;51.050;3.716;2023-03-01T01:08:04;9.50;;;6.03;;
13959;SDS011;7052;51.050;3.716;2023-03-01T01:10:34;8.03;;;6.20;;
13959;SDS011;7052;51.050;3.716;2023-03-01T01:13:01;9.07;;;6.83;;
13959;SDS011;7052;51.050;3.716;2023-03-01T01:15:33;8.57;;;6.00;;
13959;SDS011;7052;51.050;3.716;2023-03-01T01:18:16;7.90;;;6.57;;
13959;SDS011;7052;51.050;3.716;2023-03-01T01:20:43;8.43;;;6.93;;
13959;SDS011;7052;51.050;3.716;2023-03-01T01:23:10;9.87;;;6.80;;
13959;SDS011;7052;51.050;3.716;2023-03-01T01:25:37;10.37;;;6.20;;
13959;SDS011;7052;51.050;3.716;2023-03-01T01:28:04;8.23;;;6.57;;
13959;SDS011;7052;51.050;3.716;2023-03-01T01:30:30;8.07;;;5.93;;
13959;SDS011;7052;51.050;3.716;2023-03-01T01:32:57;7.60;;;6.53;;
13959;SDS011;7052;51.050;3.716;2023-03-01T01:35:29;9.67;;;6.40;;
13959;SDS011;7052;51.050;3.716;2023-03-01T01:37:56;9.37;;;6.57;;
13959;SDS011;7052;51.050;3.716;2023-03-01T01:40:24;7.97;;;6.43;;
13959;SDS011;7052;51.050;3.716;2023-03-01T01:42:51;11.30;;;6.93;;
13959;SDS011;7052;51.050;3.716;2023-03-01T01:45:28;8.13;;;6.50;;
13959;SDS011;7052;51.050;3.716;2023-03-01T01:47:59;8.93;;;6.60;;
13959;SDS011;7052;51.050;3.716;2023-03-01T01:50:33;6.90;;;6.10;;
13959;SDS011;7052;51.050;3.716;2023-03-01T01:53:05;6.67;;;5.67;;
13959;SDS011;7052;51.050;3.716;2023-03-01T01:55:38;7.70;;;5.77;;
13959;SDS011;7052;51.050;3.716;2023-03-01T01:58:12;9.23;;;6.80;;
13959;SDS011;7052;51.050;3.716;2023-03-01T02:00:43;8.47;;;6.97;;
13959;SDS011;7052;51.050;3.716;2023-03-01T02:03:12;9.00;;;7.10;;
13959;SDS011;7052;51.050;3.716;2023-03-01T02:05:47;8.33;;;6.67;;
13959;SDS011;7052;51.050;3.716;2023-03-01T02:08:20;7.60;;;6.47;;
13959;SDS011;7052;51.050;3.716;2023-03-01T02:10:55;8.03;;;7.00;;
13959;SDS011;7052;51.050;3.716;2023-03-01T02:13:24;8.00;;;7.20;;
13959;SDS011;7052;51.050;3.716;2023-03-01T02:15:51;10.17;;;7.13;;
13959;SDS011;7052;51.050;3.716;2023-03-01T02:18:19;8.60;;;7.30;;
13959;SDS011;7052;51.050;3.716;2023-03-01T02:20:53;8.77;;;7.30;;
13959;SDS011;7052;51.050;3.716;2023-03-01T02:23:31;8.73;;;7.30;;
13959;SDS011;7052;51.050;3.716;2023-03-01T02:26:02;9.97;;;7.73;;
13959;SDS011;7052;51.050;3.716;2023-03-01T02:28:35;7.93;;;7.13;;
13959;SDS011;7052;51.050;3.716;2023-03-01T02:31:04;8.73;;;7.50;;
13959;SDS011;7052;51.050;3.716;2023-03-01T02:33:50;9.27;;;8.23;;
13959;SDS011;7052;51.050;3.716;2023-03-01T02:36:19;9.03;;;6.60;;
13959;SDS011;7052;51.050;3.716;2023-03-01T02:38:48;7.70;;;6.93;;
13959;SDS011;7052;51.050;3.716;2023-03-01T02:41:16;8.63;;;7.70;;
13959;SDS011;7052;51.050;3.716;2023-03-01T02:43:47;9.53;;;7.77;;
13959;SDS011;7052;51.050;3.716;2023-03-01T02:46:14;11.53;;;7.70;;
13959;SDS011;7052;51.050;3.716;2023-03-01T02:48:44;9.10;;;7.40;;
13959;SDS011;7052;51.050;3.716;2023-03-01T02:51:17;8.33;;;7.43;;
13959;SDS011;7052;51.050;3.716;2023-03-01T02:53:58;9.37;;;7.57;;
13959;SDS011;7052;51.050;3.716;2023-03-01T02:56:34;10.33;;;7.83;;
13959;SDS011;7052;51.050;3.716;2023-03-01T02:59:03;8.77;;;7.43;;
13959;SDS011;7052;51.050;3.716;2023-03-01T03:01:30;10.00;;;7.70;;
13959;SDS011;7052;51.050;3.716;2023-03-01T03:04:03;10.70;;;7.87;;
13959;SDS011;7052;51.050;3.716;2023-03-01T03:06:31;8.83;;;7.40;;
13959;SDS011;7052;51.050;3.716;2023-03-01T03:08:58;10.17;;;8.13;;
13959;SDS011;7052;51.050;3.716;2023-03-01T03:11:26;8.73;;;7.70;;
13959;SDS011;7052;51.050;3.716;2023-03-01T03:13:54;9.37;;;7.93;;
13959;SDS011;7052;51.050;3.716;2023-03-01T03:16:22;9.97;;;7.87;;
13959;SDS011;7052;51.050;3.716;2023-03-01T03:18:49;10.50;;;8.03;;
13959;SDS011;7052;51.050;3.716;2023-03-01T03:21:16;11.73;;;8.30;;
13959;SDS011;7052;51.050;3.716;2023-03-01T03:23:43;12.33;;;8.13;;
13959;SDS011;7052;51.050;3.716;2023-03-01T03:26:10;11.23;;;8.70;;
13959;SDS011;7052;51.050;3.716;2023-03-01T03:28:40;10.70;;;8.80;;
13959;SDS011;7052;51.050;3.716;2023-03-01T03:31:07;12.43;;;9.97;;
13959;SDS011;7052;51.050;3.716;2023-03-01T03:33:36;11.57;;;9.30;;
13959;SDS011;7052;51.050;3.716;2023-03-01T03:36:03;10.57;;;9.20;;
13959;SDS011;7052;51.050;3.716;2023-03-01T03:38:31;10.97;;;9.33;;
13959;SDS011;7052;51.050;3.716;2023-03-01T03:41:02;11.83;;;9.73;;
13959;SDS011;7052;51.050;3.716;2023-03-01T03:43:32;10.97;;;8.90;;
13959;SDS011;7052;51.050;3.716;2023-03-01T03:46:02;10.27;;;8.67;;
13959;SDS011;7052;51.050;3.716;2023-03-01T03:48:31;10.87;;;8.40;;
13959;SDS011;7052;51.050;3.716;2023-03-01T03:51:01;9.70;;;7.87;;
13959;SDS011;7052;51.050;3.716;2023-03-01T03:53:30;11.53;;;8.17;;
13959;SDS011;7052;51.050;3.716;2023-03-01T03:55:57;9.10;;;8.17;;
13959;SDS011;7052;51.050;3.716;2023-03-01T03:58:25;9.33;;;7.97;;
13959;SDS011;7052;51.050;3.716;2023-03-01T04:00:54;8.93;;;8.00;;
13959;SDS011;7052;51.050;3.716;2023-03-01T04:03:23;10.00;;;8.13;;
13959;SDS011;7052;51.050;3.716;2023-03-01T04:05:51;8.77;;;7.87;;
13959;SDS011;7052;51.050;3.716;2023-03-01T04:08:20;12.40;;;8.70;;
13959;SDS011;7052;51.050;3.716;2023-03-01T04:10:49;9.80;;;8.73;;
13959;SDS011;7052;51.050;3.716;2023-03-01T04:13:18;9.57;;;8.17;;
13959;SDS011;7052;51.050;3.716;2023-03-01T04:15:46;11.70;;;9.60;;
13959;SDS011;7052;51.050;3.716;2023-03-01T04:18:15;10.50;;;8.63;;
13959;SDS011;7052;51.050;3.716;2023-03-01T04:20:45;10.27;;;8.93;;
13959;SDS011;7052;51.050;3.716;2023-03-01T04:23:14;11.67;;;9.43;;
13959;SDS011;7052;51.050;3.716;2023-03-01T04:25:47;12.07;;;9.20;;
13959;SDS011;7052;51.050;3.716;2023-03-01T04:28:18;10.23;;;8.03;;
13959;SDS011;7052;51.050;3.716;2023-03-01T04:30:46;9.93;;;7.83;;
13959;SDS011;7052;51.050;3.716;2023-03-01T04:33:13;12.57;;;10.37;;
13959;SDS011;7052;51.050;3.716;2023-03-01T04:35:40;11.67;;;9.27;;
13959;SDS011;7052;51.050;3.716;2023-03-01T04:38:07;12.67;;;10.17;;
13959;SDS011;7052;51.050;3.716;2023-03-01T04:40:34;12.40;;;10.47;;
13959;SDS011;7052;51.050;3.716;2023-03-01T04:43:03;15.03;;;9.63;;
13959;SDS011;7052;51.050;3.716;2023-03-01T04:45:31;13.27;;;9.93;;
13959;SDS011;7052;51.050;3.716;2023-03-01T04:47:59;14.90;;;10.17;;
13959;SDS011;7052;51.050;3.716;2023-03-01T04:50:28;12.13;;;9.63;;
13959;SDS011;7052;51.050;3.716;2023-03-01T04:52:56;12.33;;;10.03;;
13959;SDS011;7052;51.050;3.716;2023-03-01T04:55:24;13.63;;;10.53;;
13959;SDS011;7052;51.050;3.716;2023-03-01T04:57:52;13.23;;;10.67;;
13959;SDS011;7052;51.050;3.716;2023-03-01T05:00:22;13.90;;;10.70;;
13959;SDS011;7052;51.050;3.716;2023-03-01T05:02:51;11.97;;;9.63;;
13959;SDS011;7052;51.050;3.716;2023-03-01T05:05:23;13.87;;;11.30;;
13959;SDS011;7052;51.050;3.716;2023-03-01T05:07:52;14.53;;;10.90;;
13959;SDS011;7052;51.050;3.716;2023-03-01T05:10:20;12.07;;;9.50;;
13959;SDS011;7052;51.050;3.716;2023-03-01T05:12:48;12.57;;;10.43;;
13959;SDS011;7052;51.050;3.716;2023-03-01T05:15:15;14.47;;;10.70;;
13959;SDS011;7052;51.050;3.716;2023-03-01T05:17:52;13.50;;;10.37;;
13959;SDS011;7052;51.050;3.716;2023-03-01T05:20:19;13.03;;;10.50;;
13959;SDS011;7052;51.050;3.716;2023-03-01T05:22:48;14.53;;;10.17;;
13959;SDS011;7052;51.050;3.716;2023-03-01T05:25:16;14.07;;;10.13;;
13959;SDS011;7052;51.050;3.716;2023-03-01T05:27:43;12.90;;;10.50;;
13959;SDS011;7052;51.050;3.716;2023-03-01T05:30:10;13.50;;;9.93;;
13959;SDS011;7052;51.050;3.716;2023-03-01T05:32:40;14.70;;;10.67;;
13959;SDS011;7052;51.050;3.716;2023-03-01T05:35:10;13.77;;;10.63;;
13959;SDS011;7052;51.050;3.716;2023-03-01T05:37:40;15.10;;;10.17;;
13959;SDS011;7052;51.050;3.716;2023-03-01T05:40:08;16.33;;;10.60;;
13959;SDS011;7052;51.050;3.716;2023-03-01T05:42:40;12.77;;;10.20;;
13959;SDS011;7052;51.050;3.716;2023-03-01T05:45:09;12.40;;;9.27;;
13959;SDS011;7052;51.050;3.716;2023-03-01T05:47:38;15.07;;;13.48;;
13959;SDS011;7052;51.050;3.716;2023-03-01T05:50:08;16.30;;;11.63;;
13959;SDS011;7052;51.050;3.716;2023-03-01T05:52:57;13.57;;;10.50;;
13959;SDS011;7052;51.050;3.716;2023-03-01T05:55:26;12.73;;;9.73;;
13959;SDS011;7052;51.050;3.716;2023-03-01T05:57:53;14.10;;;10.13;;
13959;SDS011;7052;51.050;3.716;2023-03-01T06:00:20;16.60;;;10.47;;
13959;SDS011;7052;51.050;3.716;2023-03-01T06:02:48;13.93;;;10.13;;
13959;SDS011;7052;51.050;3.716;2023-03-01T06:05:18;19.83;;;10.73;;
13959;SDS011;7052;51.050;3.716;2023-03-01T06:07:45;14.67;;;10.20;;
13959;SDS011;7052;51.050;3.716;2023-03-01T06:10:12;15.10;;;10.10;;
13959;SDS011;7052;51.050;3.716;2023-03-01T06:12:40;13.33;;;10.77;;
13959;SDS011;7052;51.050;3.716;2023-03-01T06:15:09;12.57;;;9.50;;
13959;SDS011;7052;51.050;3.716;2023-03-01T06:17:37;12.47;;;10.37;;
13959;SDS011;7052;51.050;3.716;2023-03-01T06:20:06;12.63;;;10.23;;
13959;SDS011;7052;51.050;3.716;2023-03-01T06:22:37;17.17;;;10.10;;
13959;SDS011;7052;51.050;3.716;2023-03-01T06:25:05;13.43;;;9.93;;
13959;SDS011;7052;51.050;3.716;2023-03-01T06:27:32;11.83;;;9.40;;
13959;SDS011;7052;51.050;3.716;2023-03-01T06:30:00;13.17;;;9.50;;
13959;SDS011;7052;51.050;3.716;2023-03-01T06:32:27;11.97;;;9.67;;
13959;SDS011;7052;51.050;3.716;2023-03-01T06:34:57;12.13;;;9.27;;
13959;SDS011;7052;51.050;3.716;2023-03-01T06:37:24;14.87;;;9.73;;
13959;SDS011;7052;51.050;3.716;2023-03-01T06:39:53;10.50;;;9.03;;
13959;SDS011;7052;51.050;3.716;2023-03-01T06:42:21;11.93;;;9.40;;
13959;SDS011;7052;51.050;3.716;2023-03-01T06:44:50;11.07;;;9.00;;
13959;SDS011;7052;51.050;3.716;2023-03-01T06:47:17;13.17;;;9.43;;
13959;SDS011;7052;51.050;3.716;2023-03-01T06:49:44;14.00;;;9.97;;
13959;SDS011;7052;51.050;3.716;2023-03-01T06:52:14;11.67;;;8.70;;
13959;SDS011;7052;51.050;3.716;2023-03-01T06:54:43;12.80;;;8.23;;
13959;SDS011;7052;51.050;3.716;2023-03-01T06:57:11;12.07;;;9.53;;
13959;SDS011;7052;51.050;3.716;2023-03-01T06:59:38;15.17;;;10.03;;
13959;SDS011;7052;51.050;3.716;2023-03-01T07:02:06;14.23;;;9.70;;
13959;SDS011;7052;51.050;3.716;2023-03-01T07:04:35;11.43;;;8.13;;
13959;SDS011;7052;51.050;3.716;2023-03-01T07:07:02;11.50;;;8.90;;
13959;SDS011;7052;51.050;3.716;2023-03-01T07:09:29;13.20;;;9.27;;
13959;SDS011;7052;51.050;3.716;2023-03-01T07:11:56;13.10;;;8.13;;
13959;SDS011;7052;51.050;3.716;2023-03-01T07:14:25;15.53;;;9.27;;
13959;SDS011;7052;51.050;3.716;2023-03-01T07:16:52;14.57;;;8.80;;
13959;SDS011;7052;51.050;3.716;2023-03-01T07:19:21;10.10;;;8.67;;
13959;SDS011;7052;51.050;3.716;2023-03-01T07:21:49;10.23;;;8.60;;
13959;SDS011;7052;51.050;3.716;2023-03-01T07:24:16;10.73;;;9.00;;
13959;SDS011;7052;51.050;3.716;2023-03-01T07:26:43;13.20;;;7.97;;
13959;SDS011;7052;51.050;3.716;2023-03-01T07:29:10;9.47;;;6.80;;
13959;SDS011;7052;51.050;3.716;2023-03-01T07:31:40;11.60;;;8.20;;
13959;SDS011;7052;51.050;3.716;2023-03-01T07:34:07;18.17;;;9.20;;
13959;SDS011;7052;51.050;3.716;2023-03-01T07:36:38;12.23;;;8.10;;
13959;SDS011;7052;51.050;3.716;2023-03-01T07:39:08;11.07;;;7.90;;
13959;SDS011;7052;51.050;3.716;2023-03-01T07:41:35;9.37;;;8.00;;
13959;SDS011;7052;51.050;3.716;2023-03-01T07:44:02;10.77;;;8.57;;
13959;SDS011;7052;51.050;3.716;2023-03-01T07:46:31;12.33;;;8.27;;
13959;SDS011;7052;51.050;3.716;2023-03-01T07:48:59;12.60;;;8.47;;
13959;SDS011;7052;51.050;3.716;2023-03-01T07:51:27;9.97;;;7.77;;
13959;SDS011;7052;51.050;3.716;2023-03-01T07:53:54;12.17;;;7.73;;
13959;SDS011;7052;51.050;3.716;2023-03-01T07:56:25;12.03;;;8.20;;
13959;SDS011;7052;51.050;3.716;2023-03-01T07:58:52;11.23;;;7.70;;
13959;SDS011;7052;51.050;3.716;2023-03-01T08:01:19;9.50;;;6.67;;
13959;SDS011;7052;51.050;3.716;2023-03-01T08:03:47;9.07;;;6.43;;
13959;SDS011;7052;51.050;3.716;2023-03-01T08:06:16;9.83;;;7.63;;
13959;SDS011;7052;51.050;3.716;2023-03-01T08:08:44;17.57;;;8.50;;
13959;SDS011;7052;51.050;3.716;2023-03-01T08:11:11;21.73;;;8.90;;
13959;SDS011;7052;51.050;3.716;2023-03-01T08:13:40;13.47;;;7.70;;
13959;SDS011;7052;51.050;3.716;2023-03-01T08:16:11;10.00;;;7.07;;
13959;SDS011;7052;51.050;3.716;2023-03-01T08:18:39;10.05;;;8.30;;
13959;SDS011;7052;51.050;3.716;2023-03-01T08:21:07;9.67;;;7.00;;
13959;SDS011;7052;51.050;3.716;2023-03-01T08:23:37;10.13;;;7.30;;
13959;SDS011;7052;51.050;3.716;2023-03-01T08:26:05;11.63;;;7.43;;
13959;SDS011;7052;51.050;3.716;2023-03-01T08:28:33;10.83;;;7.30;;
13959;SDS011;7052;51.050;3.716;2023-03-01T08:31:00;13.27;;;7.63;;
13959;SDS011;7052;51.050;3.716;2023-03-01T08:33:27;9.87;;;6.97;;
13959;SDS011;7052;51.050;3.716;2023-03-01T08:36:01;13.93;;;7.30;;
13959;SDS011;7052;51.050;3.716;2023-03-01T08:38:29;13.27;;;7.17;;
13959;SDS011;7052;51.050;3.716;2023-03-01T08:41:00;13.37;;;7.57;;
13959;SDS011;7052;51.050;3.716;2023-03-01T08:43:27;11.00;;;7.97;;
13959;SDS011;7052;51.050;3.716;2023-03-01T08:45:54;12.33;;;7.30;;
13959;SDS011;7052;51.050;3.716;2023-03-01T08:48:20;21.87;;;9.23;;
13959;SDS011;7052;51.050;3.716;2023-03-01T08:50:48;12.70;;;7.53;;
13959;SDS011;7052;51.050;3.716;2023-03-01T08:53:14;11.67;;;7.20;;
13959;SDS011;7052;51.050;3.716;2023-03-01T08:55:42;11.27;;;7.47;;
13959;SDS011;7052;51.050;3.716;2023-03-01T08:58:10;10.53;;;7.20;;
13959;SDS011;7052;51.050;3.716;2023-03-01T09:00:37;28.03;;;9.53;;
13959;SDS011;7052;51.050;3.716;2023-03-01T09:03:05;42.20;;;11.00;;
13959;SDS011;7052;51.050;3.716;2023-03-01T09:05:32;14.77;;;7.53;;
13959;SDS011;7052;51.050;3.716;2023-03-01T09:07:59;9.73;;;7.60;;
13959;SDS011;7052;51.050;3.716;2023-03-01T09:10:26;12.37;;;8.10;;
13959;SDS011;7052;51.050;3.716;2023-03-01T09:12:52;10.00;;;6.83;;
13959;SDS011;7052;51.050;3.716;2023-03-01T09:15:21;14.83;;;7.60;;
13959;SDS011;7052;51.050;3.716;2023-03-01T09:17:47;15.57;;;8.30;;
13959;SDS011;7052;51.050;3.716;2023-03-01T09:20:14;11.63;;;7.80;;
13959;SDS011;7052;51.050;3.716;2023-03-01T09:22:43;11.83;;;8.00;;
13959;SDS011;7052;51.050;3.716;2023-03-01T09:25:10;12.07;;;7.23;;
13959;SDS011;7052;51.050;3.716;2023-03-01T09:27:37;11.63;;;7.70;;
13959;SDS011;7052;51.050;3.716;2023-03-01T09:30:05;9.73;;;7.20;;
13959;SDS011;7052;51.050;3.716;2023-03-01T09:32:34;11.90;;;7.57;;
13959;SDS011;7052;51.050;3.716;2023-03-01T09:35:01;14.37;;;7.93;;
13959;SDS011;7052;51.050;3.716;2023-03-01T09:37:35;13.37;;;7.80;;
13959;SDS011;7052;51.050;3.716;2023-03-01T09:40:04;16.23;;;9.00;;
13959;SDS011;7052;51.050;3.716;2023-03-01T09:42:33;11.57;;;8.30;;
13959;SDS011;7052;51.050;3.716;2023-03-01T09:45:02;8.57;;;6.93;;
13959;SDS011;7052;51.050;3.716;2023-03-01T09:47:32;10.47;;;6.93;;
13959;SDS011;7052;51.050;3.716;2023-03-01T09:50:03;10.10;;;7.03;;
13959;SDS011;7052;51.050;3.716;2023-03-01T09:52:33;9.03;;;6.00;;
13959;SDS011;7052;51.050;3.716;2023-03-01T09:55:07;7.60;;;5.87;;
13959;SDS011;7052;51.050;3.716;2023-03-01T09:57:38;11.20;;;7.10;;
13959;SDS011;7052;51.050;3.716;2023-03-01T10:00:23;12.77;;;6.70;;
13959;SDS011;7052;51.050;3.716;2023-03-01T10:02:59;10.00;;;7.33;;
13959;SDS011;7052;51.050;3.716;2023-03-01T10:05:36;10.03;;;7.17;;
13959;SDS011;7052;51.050;3.716;2023-03-01T10:08:34;10.43;;;6.47;;
13959;SDS011;7052;51.050;3.716;2023-03-01T10:11:12;7.17;;;6.27;;
13959;SDS011;7052;51.050;3.716;2023-03-01T10:13:45;11.13;;;7.47;;
13959;SDS011;7052;51.050;3.716;2023-03-01T10:16:21;9.47;;;7.07;;
13959;SDS011;7052;51.050;3.716;2023-03-01T10:18:55;11.20;;;7.00;;
13959;SDS011;7052;51.050;3.716;2023-03-01T10:21:25;8.43;;;7.47;;
13959;SDS011;7052;51.050;3.716;2023-03-01T10:23:54;10.43;;;6.70;;
13959;SDS011;7052;51.050;3.716;2023-03-01T10:26:30;8.00;;;6.07;;
13959;SDS011;7052;51.050;3.716;2023-03-01T10:29:07;12.50;;;7.40;;
13959;SDS011;7052;51.050;3.716;2023-03-01T10:31:41;6.87;;;5.80;;
13959;SDS011;7052;51.050;3.716;2023-03-01T10:34:13;17.67;;;7.13;;
13959;SDS011;7052;51.050;3.716;2023-03-01T10:36:43;9.00;;;5.80;;
13959;SDS011;7052;51.050;3.716;2023-03-01T10:39:17;11.70;;;7.10;;
13959;SDS011;7052;51.050;3.716;2023-03-01T10:41:54;11.50;;;7.20;;
13959;SDS011;7052;51.050;3.716;2023-03-01T10:44:42;14.30;;;7.97;;
13959;SDS011;7052;51.050;3.716;2023-03-01T10:47:14;11.87;;;7.67;;
13959;SDS011;7052;51.050;3.716;2023-03-01T10:49:52;10.57;;;8.03;;
13959;SDS011;7052;51.050;3.716;2023-03-01T10:52:25;7.37;;;5.30;;
13959;SDS011;7052;51.050;3.716;2023-03-01T10:54:55;8.83;;;6.33;;
13959;SDS011;7052;51.050;3.716;2023-03-01T10:57:31;10.93;;;6.00;;
13959;SDS011;7052;51.050;3.716;2023-03-01T11:00:19;11.17;;;6.93;;
13959;SDS011;7052;51.050;3.716;2023-03-01T11:02:49;6.67;;;5.27;;
13959;SDS011;7052;51.050;3.716;2023-03-01T11:05:20;7.00;;;5.30;;
13959;SDS011;7052;51.050;3.716;2023-03-01T11:07:51;7.03;;;5.70;;
13959;SDS011;7052;51.050;3.716;2023-03-01T11:10:21;9.43;;;6.13;;
13959;SDS011;7052;51.050;3.716;2023-03-01T11:12:50;8.47;;;5.30;;
13959;SDS011;7052;51.050;3.716;2023-03-01T11:15:19;8.83;;;5.43;;
13959;SDS011;7052;51.050;3.716;2023-03-01T11:17:52;8.40;;;5.37;;
13959;SDS011;7052;51.050;3.716;2023-03-01T11:20:25;6.60;;;5.73;;
13959;SDS011;7052;51.050;3.716;2023-03-01T11:22:58;10.50;;;6.73;;
13959;SDS011;7052;51.050;3.716;2023-03-01T11:25:29;9.63;;;6.43;;
13959;SDS011;7052;51.050;3.716;2023-03-01T11:28:01;9.93;;;6.60;;
13959;SDS011;7052;51.050;3.716;2023-03-01T11:30:31;11.27;;;8.37;;
13959;SDS011;7052;51.050;3.716;2023-03-01T11:33:08;7.80;;;6.50;;
13959;SDS011;7052;51.050;3.716;2023-03-01T11:35:46;12.43;;;7.87;;
13959;SDS011;7052;51.050;3.716;2023-03-01T11:38:24;8.03;;;6.10;;
13959;SDS011;7052;51.050;3.716;2023-03-01T11:40:54;7.70;;;6.20;;
13959;SDS011;7052;51.050;3.716;2023-03-01T11:43:32;11.07;;;6.93;;
13959;SDS011;7052;51.050;3.716;2023-03-01T11:48:56;10.90;;;7.50;;
13959;SDS011;7052;51.050;3.716;2023-03-01T11:51:41;8.40;;;6.97;;
13959;SDS011;7052;51.050;3.716;2023-03-01T11:54:18;10.20;;;6.50;;
13959;SDS011;7052;51.050;3.716;2023-03-01T11:56:57;6.93;;;5.67;;
13959;SDS011;7052;51.050;3.716;2023-03-01T11:59:36;10.83;;;6.20;;
13959;SDS011;7052;51.050;3.716;2023-03-01T12:02:32;10.17;;;6.43;;
13959;SDS011;7052;51.050;3.716;2023-03-01T12:05:43;9.47;;;6.07;;
13959;SDS011;7052;51.050;3.716;2023-03-01T12:11:26;8.73;;;5.87;;
13959;SDS011;7052;51.050;3.716;2023-03-01T12:14:13;8.40;;;6.33;;
13959;SDS011;7052;51.050;3.716;2023-03-01T12:17:00;7.20;;;5.97;;
13959;SDS011;7052;51.050;3.716;2023-03-01T12:19:50;6.80;;;5.67;;
13959;SDS011;7052;51.050;3.716;2023-03-01T12:22:29;6.90;;;5.40;;
13959;SDS011;7052;51.050;3.716;2023-03-01T12:25:19;8.07;;;5.40;;
13959;SDS011;7052;51.050;3.716;2023-03-01T12:27:57;10.47;;;5.27;;
13959;SDS011;7052;51.050;3.716;2023-03-01T12:30:46;16.10;;;6.97;;
13959;SDS011;7052;51.050;3.716;2023-03-01T12:33:26;14.13;;;5.83;;
13959;SDS011;7052;51.050;3.716;2023-03-01T12:39:06;6.77;;;5.30;;
13959;SDS011;7052;51.050;3.716;2023-03-01T12:41:49;5.73;;;4.63;;
13959;SDS011;7052;51.050;3.716;2023-03-01T12:44:40;6.63;;;5.10;;
13959;SDS011;7052;51.050;3.716;2023-03-01T12:47:24;5.00;;;4.13;;
13959;SDS011;7052;51.050;3.716;2023-03-01T12:50:01;10.43;;;5.30;;
13959;SDS011;7052;51.050;3.716;2023-03-01T12:52:34;6.73;;;4.63;;
13959;SDS011;7052;51.050;3.716;2023-03-01T12:55:07;7.77;;;4.40;;
13959;SDS011;7052;51.050;3.716;2023-03-01T12:57:46;6.33;;;4.60;;
13959;SDS011;7052;51.050;3.716;2023-03-01T13:00:24;6.47;;;5.07;;
13959;SDS011;7052;51.050;3.716;2023-03-01T13:02:57;7.27;;;5.07;;
13959;SDS011;7052;51.050;3.716;2023-03-01T13:05:32;7.30;;;5.33;;
13959;SDS011;7052;51.050;3.716;2023-03-01T13:08:08;6.13;;;5.30;;
13959;SDS011;7052;51.050;3.716;2023-03-01T13:10:46;6.57;;;5.00;;
13959;SDS011;7052;51.050;3.716;2023-03-01T13:13:22;23.33;;;6.80;;
13959;SDS011;7052;51.050;3.716;2023-03-01T13:15:51;5.93;;;5.03;;
13959;SDS011;7052;51.050;3.716;2023-03-01T13:18:29;8.60;;;4.73;;
13959;SDS011;7052;51.050;3.716;2023-03-01T13:20:59;8.57;;;5.33;;
13959;SDS011;7052;51.050;3.716;2023-03-01T13:23:30;7.03;;;4.93;;
13959;SDS011;7052;51.050;3.716;2023-03-01T13:26:14;8.80;;;5.57;;
13959;SDS011;7052;51.050;3.716;2023-03-01T13:28:57;5.97;;;5.40;;
13959;SDS011;7052;51.050;3.716;2023-03-01T13:34:41;9.07;;;5.40;;
13959;SDS011;7052;51.050;3.716;2023-03-01T13:37:27;12.57;;;5.83;;
13959;SDS011;7052;51.050;3.716;2023-03-01T13:40:00;11.00;;;6.30;;
13959;SDS011;7052;51.050;3.716;2023-03-01T13:42:35;9.37;;;5.53;;
13959;SDS011;7052;51.050;3.716;2023-03-01T13:45:24;7.33;;;6.00;;
13959;SDS011;7052;51.050;3.716;2023-03-01T13:48:01;8.53;;;5.10;;
13959;SDS011;7052;51.050;3.716;2023-03-01T13:50:37;6.27;;;5.33;;
13959;SDS011;7052;51.050;3.716;2023-03-01T13:53:13;6.07;;;5.30;;
13959;SDS011;7052;51.050;3.716;2023-03-01T13:55:44;10.13;;;5.67;;
13959;SDS011;7052;51.050;3.716;2023-03-01T13:58:19;17.67;;;6.90;;
13959;SDS011;7052;51.050;3.716;2023-03-01T14:01:00;10.53;;;5.70;;
13959;SDS011;7052;51.050;3.716;2023-03-01T14:03:31;11.23;;;6.50;;
13959;SDS011;7052;51.050;3.716;2023-03-01T14:06:01;15.20;;;5.87;;
13959;SDS011;7052;51.050;3.716;2023-03-01T14:08:33;10.40;;;5.83;;
13959;SDS011;7052;51.050;3.716;2023-03-01T14:14:09;14.33;;;6.20;;
13959;SDS011;7052;51.050;3.716;2023-03-01T14:16:52;7.90;;;5.73;;
13959;SDS011;7052;51.050;3.716;2023-03-01T14:19:24;8.43;;;5.83;;
13959;SDS011;7052;51.050;3.716;2023-03-01T14:24:21;15.00;;;6.37;;
13959;SDS011;7052;51.050;3.716;2023-03-01T14:26:52;14.70;;;6.07;;
13959;SDS011;7052;51.050;3.716;2023-03-01T14:29:27;7.57;;;6.00;;
13959;SDS011;7052;51.050;3.716;2023-03-01T14:32:11;6.23;;;5.37;;
13959;SDS011;7052;51.050;3.716;2023-03-01T14:34:48;5.40;;;4.80;;
13959;SDS011;7052;51.050;3.716;2023-03-01T14:37:21;8.20;;;6.07;;
13959;SDS011;7052;51.050;3.716;2023-03-01T14:39:50;7.33;;;4.80;;
13959;SDS011;7052;51.050;3.716;2023-03-01T14:42:18;10.60;;;6.00;;
13959;SDS011;7052;51.050;3.716;2023-03-01T14:44:47;9.60;;;5.50;;
13959;SDS011;7052;51.050;3.716;2023-03-01T14:47:22;6.13;;;5.37;;
13959;SDS011;7052;51.050;3.716;2023-03-01T14:49:55;10.97;;;6.27;;
13959;SDS011;7052;51.050;3.716;2023-03-01T14:52:28;7.13;;;5.70;;
13959;SDS011;7052;51.050;3.716;2023-03-01T14:55:04;10.27;;;6.23;;
13959;SDS011;7052;51.050;3.716;2023-03-01T14:57:34;12.50;;;6.43;;
13959;SDS011;7052;51.050;3.716;2023-03-01T15:00:02;9.87;;;6.13;;
13959;SDS011;7052;51.050;3.716;2023-03-01T15:02:34;8.57;;;5.97;;
13959;SDS011;7052;51.050;3.716;2023-03-01T15:05:13;9.40;;;5.77;;
13959;SDS011;7052;51.050;3.716;2023-03-01T15:07:42;12.07;;;6.40;;
13959;SDS011;7052;51.050;3.716;2023-03-01T15:10:20;7.50;;;5.80;;
13959;SDS011;7052;51.050;3.716;2023-03-01T15:12:50;6.97;;;5.90;;
13959;SDS011;7052;51.050;3.716;2023-03-01T15:15:20;5.93;;;5.30;;
13959;SDS011;7052;51.050;3.716;2023-03-01T15:18:03;6.63;;;5.43;;
13959;SDS011;7052;51.050;3.716;2023-03-01T15:20:38;8.20;;;5.70;;
13959;SDS011;7052;51.050;3.716;2023-03-01T15:23:12;8.53;;;5.50;;
13959;SDS011;7052;51.050;3.716;2023-03-01T15:25:46;7.93;;;5.73;;
13959;SDS011;7052;51.050;3.716;2023-03-01T15:28:22;7.20;;;5.80;;
13959;SDS011;7052;51.050;3.716;2023-03-01T15:30:52;16.23;;;6.40;;
13959;SDS011;7052;51.050;3.716;2023-03-01T15:33:35;13.13;;;6.73;;
13959;SDS011;7052;51.050;3.716;2023-03-01T15:38:57;9.77;;;6.07;;
13959;SDS011;7052;51.050;3.716;2023-03-01T15:41:28;9.23;;;6.20;;
13959;SDS011;7052;51.050;3.716;2023-03-01T15:43:57;9.17;;;6.13;;